Time;durP1;ratioP1;P1;durP2;ratioP2;P2;SDS_P1;SDS_P2;PMS_P1;PMS_P2;Temp;Humidity;BMP_temperature;BMP_pressure;BME280_temperature;BME280_humidity;BME280_pressure;Samples;Min_cycle;Max_cycle;Signal;HPM_P1;HPM_P2
2021/09/24 00:01:01;;;;;;;6.03;4.43;;;12.10;85.80;;;;;;2080991;28;20197;-65
2021/09/24 00:02:02;;;;;;;7.03;4.45;;;12.10;85.90;;;;;;2081205;28;20173;-65
2021/09/24 00:03:03;;;;;;;6.40;4.07;;;12.10;85.70;;;;;;2080469;28;20713;-66
2021/09/24 00:04:04;;;;;;;6.87;4.57;;;12.10;85.50;;;;;;2080624;28;20173;-64
2021/09/24 00:05:06;;;;;;;4.75;3.90;;;12.10;85.10;;;;;;2081244;28;20185;-65
2021/09/24 00:06:07;;;;;;;7.47;4.20;;;12.10;85.10;;;;;;2080756;28;20169;-66
2021/09/24 00:07:08;;;;;;;6.93;4.97;;;12.10;85.10;;;;;;2080628;28;20746;-64
2021/09/24 00:08:09;;;;;;;4.17;3.70;;;12.10;85.10;;;;;;2081488;28;20203;-65
2021/09/24 00:09:10;;;;;;;5.30;4.30;;;12.10;84.90;;;;;;2081074;28;20196;-65
2021/09/24 00:10:13;;;;;;;5.22;4.03;;;12.10;84.80;;;;;;2081289;28;20169;-66
2021/09/24 00:11:13;;;;;;;5.95;4.07;;;12.10;84.80;;;;;;2080937;28;20172;-65
2021/09/24 00:12:14;;;;;;;5.60;4.27;;;12.10;84.50;;;;;;2081098;28;20247;-65
2021/09/24 00:13:15;;;;;;;5.60;4.53;;;12.10;84.60;;;;;;2081104;28;20259;-65
2021/09/24 00:14:15;;;;;;;5.10;4.17;;;12.00;84.40;;;;;;2080795;28;20204;-66
2021/09/24 00:15:17;;;;;;;7.23;4.27;;;12.00;84.60;;;;;;2080603;28;20206;-64
2021/09/24 00:16:18;;;;;;;5.43;4.28;;;12.00;84.50;;;;;;2080704;28;20173;-65
2021/09/24 00:17:18;;;;;;;5.07;4.03;;;12.00;84.60;;;;;;2080738;28;20507;-65
2021/09/24 00:18:20;;;;;;;4.53;3.97;;;11.90;84.30;;;;;;2081275;28;20184;-67
2021/09/24 00:19:20;;;;;;;5.03;4.20;;;11.80;84.20;;;;;;2080589;28;20710;-64
2021/09/24 00:20:21;;;;;;;5.63;4.50;;;11.60;85.10;;;;;;2080696;28;20212;-67
2021/09/24 00:21:22;;;;;;;6.57;4.40;;;11.50;85.40;;;;;;2081008;28;20201;-64
2021/09/24 00:22:23;;;;;;;5.37;4.60;;;11.40;85.50;;;;;;2081114;28;20184;-65
2021/09/24 00:23:23;;;;;;;5.07;4.10;;;11.30;85.40;;;;;;2081092;28;20215;-66
2021/09/24 00:24:24;;;;;;;7.73;4.20;;;11.30;85.20;;;;;;2081161;28;20534;-64
2021/09/24 00:25:25;;;;;;;5.83;4.57;;;11.20;86.00;;;;;;2081149;28;20183;-65
2021/09/24 00:26:25;;;;;;;5.43;3.70;;;11.20;85.00;;;;;;2081055;28;20572;-66
2021/09/24 00:27:26;;;;;;;6.87;4.77;;;11.20;85.50;;;;;;2081368;28;20193;-64
2021/09/24 00:28:27;;;;;;;5.67;4.70;;;11.10;85.80;;;;;;2081062;28;20188;-64
2021/09/24 00:29:27;;;;;;;6.50;4.40;;;11.10;85.80;;;;;;2081168;28;20267;-65
2021/09/24 00:30:28;;;;;;;8.07;4.80;;;11.10;85.90;;;;;;2081108;28;20640;-64
2021/09/24 00:31:29;;;;;;;5.13;4.47;;;11.10;85.80;;;;;;2080719;28;20185;-65
2021/09/24 00:32:29;;;;;;;6.37;4.77;;;11.10;86.10;;;;;;2081084;28;20264;-66
2021/09/24 00:33:30;;;;;;;6.13;4.27;;;11.10;86.10;;;;;;2081026;28;20728;-65
2021/09/24 00:34:31;;;;;;;6.27;4.77;;;11.10;85.90;;;;;;2080918;28;20264;-64
2021/09/24 00:35:32;;;;;;;6.00;4.47;;;11.10;86.00;;;;;;2080995;28;20184;-65
2021/09/24 00:36:33;;;;;;;5.60;4.50;;;11.10;86.00;;;;;;2080919;28;20629;-66
2021/09/24 00:37:33;;;;;;;6.70;4.60;;;11.10;86.60;;;;;;2080975;28;20663;-64
2021/09/24 00:38:38;;;;;;;5.63;4.50;;;11.10;87.40;;;;;;2080923;28;20231;-66
2021/09/24 00:39:38;;;;;;;6.80;4.75;;;11.10;87.00;;;;;;2080878;28;20181;-65
2021/09/24 00:40:39;;;;;;;6.93;4.80;;;11.10;87.40;;;;;;2081081;28;20276;-65
2021/09/24 00:41:40;;;;;;;5.60;4.37;;;11.00;87.00;;;;;;2080711;28;20251;-65
2021/09/24 00:42:41;;;;;;;5.67;4.57;;;11.00;86.90;;;;;;2080905;28;20839;-65
2021/09/24 00:43:41;;;;;;;6.63;5.33;;;11.00;87.00;;;;;;2081054;28;20177;-65
2021/09/24 00:44:51;;;;;;;7.03;5.27;;;10.90;87.00;;;;;;2080728;28;20181;-65
2021/09/24 00:45:51;;;;;;;8.52;4.78;;;10.90;87.10;;;;;;2080295;28;20582;-65
2021/09/24 00:46:53;;;;;;;5.93;4.80;;;10.90;87.20;;;;;;2080255;28;20177;-65
2021/09/24 00:47:54;;;;;;;7.22;4.95;;;10.90;87.30;;;;;;2080331;28;20271;-65
2021/09/24 00:48:55;;;;;;;6.57;5.00;;;10.90;87.60;;;;;;2080319;28;20598;-64
2021/09/24 00:49:55;;;;;;;5.57;4.50;;;10.80;88.20;;;;;;2081003;28;20231;-65
2021/09/24 00:50:56;;;;;;;7.50;4.50;;;10.80;88.10;;;;;;2080854;28;20696;-66
2021/09/24 00:51:57;;;;;;;7.27;4.80;;;10.80;88.70;;;;;;2079911;28;20221;-65
2021/09/24 00:52:59;;;;;;;7.88;5.18;;;10.80;89.00;;;;;;2080192;28;20275;-64
2021/09/24 00:54:00;;;;;;;7.55;4.70;;;10.80;89.00;;;;;;2080297;28;20176;-66
2021/09/24 00:55:03;;;;;;;10.70;4.88;;;10.70;89.40;;;;;;2081402;28;20170;-65
2021/09/24 00:56:04;;;;;;;7.03;5.20;;;10.70;89.70;;;;;;2081710;28;20173;-65
2021/09/24 00:57:05;;;;;;;5.63;4.30;;;10.70;89.30;;;;;;2081750;28;20219;-65
2021/09/24 00:58:06;;;;;;;5.80;4.60;;;10.60;90.00;;;;;;2081910;28;20570;-66
2021/09/24 00:59:07;;;;;;;5.57;4.50;;;10.60;90.00;;;;;;2081787;28;20188;-65
2021/09/24 01:00:08;;;;;;;5.97;4.80;;;10.60;90.10;;;;;;2082487;28;20316;-65
2021/09/24 01:01:09;;;;;;;6.47;4.70;;;10.50;90.40;;;;;;2081957;28;20180;-65
2021/09/24 01:02:10;;;;;;;5.80;4.63;;;10.60;90.50;;;;;;2082321;28;20187;-65
2021/09/24 01:03:11;;;;;;;6.33;4.70;;;10.60;90.60;;;;;;2082321;28;20626;-66
2021/09/24 01:04:12;;;;;;;6.00;5.03;;;10.60;90.70;;;;;;2082427;28;20539;-65
2021/09/24 01:05:14;;;;;;;5.93;4.53;;;10.60;90.90;;;;;;2081662;28;20580;-64
2021/09/24 01:06:15;;;;;;;5.60;4.38;;;10.70;91.00;;;;;;2081692;28;20206;-66
2021/09/24 01:07:16;;;;;;;5.03;4.20;;;10.70;91.30;;;;;;2081716;28;20684;-65
2021/09/24 01:08:17;;;;;;;5.07;4.10;;;10.80;91.20;;;;;;2070985;28;20181;-66
2021/09/24 01:09:18;;;;;;;5.10;3.92;;;10.90;90.90;;;;;;2065443;28;20281;-65
2021/09/24 01:10:20;;;;;;;4.85;3.85;;;11.00;90.70;;;;;;2073457;28;20188;-65
2021/09/24 01:11:21;;;;;;;4.97;4.03;;;11.10;90.50;;;;;;2073850;28;20170;-64
2021/09/24 01:12:23;;;;;;;5.68;4.25;;;11.10;90.10;;;;;;2073903;28;20218;-65
2021/09/24 01:13:24;;;;;;;4.68;4.10;;;11.10;89.80;;;;;;2073917;28;20216;-65
2021/09/24 01:14:31;;;;;;;5.00;3.88;;;11.20;89.00;;;;;;2073983;28;20262;-66
2021/09/24 01:15:32;;;;;;;6.30;3.83;;;11.30;88.50;;;;;;2074118;28;20176;-65
2021/09/24 01:16:33;;;;;;;4.53;3.83;;;11.40;87.30;;;;;;2074047;28;20265;-66
2021/09/24 01:17:34;;;;;;;6.77;3.73;;;11.50;86.90;;;;;;2073968;28;20238;-65
2021/09/24 01:18:34;;;;;;;5.00;3.87;;;11.60;87.60;;;;;;2074015;28;20253;-67
2021/09/24 01:19:35;;;;;;;5.17;3.90;;;11.60;85.40;;;;;;2074220;28;20409;-66
2021/09/24 01:20:37;;;;;;;5.47;4.37;;;11.70;84.60;;;;;;2073997;28;20175;-65
2021/09/24 01:21:42;;;;;;;5.53;3.67;;;11.80;84.60;;;;;;2065026;28;20265;-65
2021/09/24 01:22:43;;;;;;;5.50;3.92;;;11.80;84.10;;;;;;2065967;28;20594;-65
2021/09/24 01:23:44;;;;;;;6.40;4.38;;;11.70;80.90;;;;;;2074121;28;20182;-65
2021/09/24 01:24:45;;;;;;;6.50;4.23;;;11.40;83.10;;;;;;2073977;28;20592;-66
2021/09/24 01:25:46;;;;;;;5.80;4.20;;;11.30;83.50;;;;;;2074096;28;20205;-66
2021/09/24 01:26:54;;;;;;;5.73;4.40;;;11.20;83.20;;;;;;2074026;28;20221;-65
2021/09/24 01:27:55;;;;;;;6.00;3.97;;;11.10;83.50;;;;;;2074039;28;20192;-66
2021/09/24 01:28:56;;;;;;;5.13;4.00;;;11.00;85.90;;;;;;2073981;28;20184;-65
2021/09/24 01:29:57;;;;;;;5.03;3.72;;;11.00;86.00;;;;;;2074055;28;20166;-66
2021/09/24 01:30:58;;;;;;;4.90;3.73;;;11.10;88.10;;;;;;2073914;28;20245;-65
2021/09/24 01:31:59;;;;;;;6.77;4.27;;;11.00;88.20;;;;;;2073760;28;20289;-66
2021/09/24 01:33:00;;;;;;;7.45;3.92;;;10.90;87.70;;;;;;2073781;28;20200;-65
2021/09/24 01:34:00;;;;;;;4.47;3.77;;;10.80;87.50;;;;;;2073995;28;20536;-66
2021/09/24 01:35:05;;;;;;;5.63;4.27;;;10.70;87.90;;;;;;2073869;28;20170;-66
2021/09/24 01:36:06;;;;;;;4.70;3.88;;;10.40;89.00;;;;;;2073531;28;20181;-64
2021/09/24 01:37:07;;;;;;;5.77;4.43;;;10.30;90.10;;;;;;2074888;28;20181;-66
2021/09/24 01:38:08;;;;;;;6.50;4.43;;;10.20;90.40;;;;;;2081909;28;20211;-65
2021/09/24 01:39:10;;;;;;;8.00;4.68;;;10.10;90.30;;;;;;2082075;28;20173;-65
2021/09/24 01:40:19;;;;;;;6.63;5.05;;;10.10;90.30;;;;;;2082139;28;20192;-66
2021/09/24 01:41:20;;;;;;;6.05;4.10;;;10.10;90.10;;;;;;2081882;28;20243;-65
2021/09/24 01:42:23;;;;;;;5.53;4.27;;;10.10;90.10;;;;;;2082190;28;20173;-65
2021/09/24 01:43:24;;;;;;;5.65;4.35;;;10.10;90.00;;;;;;2081257;28;20555;-65
2021/09/24 01:44:24;;;;;;;5.77;4.37;;;10.10;90.20;;;;;;2081488;28;20265;-65
2021/09/24 01:45:25;;;;;;;4.77;3.93;;;10.00;90.20;;;;;;2082008;28;20256;-66
2021/09/24 01:46:26;;;;;;;6.97;4.70;;;10.00;90.10;;;;;;2082026;28;20219;-65
2021/09/24 01:47:26;;;;;;;5.80;4.27;;;10.00;90.10;;;;;;2082035;28;20206;-64
2021/09/24 01:48:27;;;;;;;7.67;4.70;;;9.90;90.50;;;;;;2081944;28;20188;-66
2021/09/24 01:49:28;;;;;;;6.27;4.47;;;9.90;90.60;;;;;;2082072;28;20189;-65
2021/09/24 01:50:28;;;;;;;6.63;4.13;;;9.80;91.10;;;;;;2081948;28;20553;-64
2021/09/24 01:51:29;;;;;;;5.40;3.97;;;9.70;90.60;;;;;;2081712;28;20222;-65
2021/09/24 01:52:30;;;;;;;5.93;4.13;;;9.60;87.30;;;;;;2081545;28;20184;-65
2021/09/24 01:53:31;;;;;;;5.93;3.63;;;9.40;86.60;;;;;;2073120;28;20276;-64
2021/09/24 01:54:31;;;;;;;5.67;3.77;;;9.30;87.30;;;;;;2081436;28;20176;-66
2021/09/24 01:55:32;;;;;;;5.23;3.80;;;9.20;88.10;;;;;;2082095;28;20228;-65
2021/09/24 01:56:33;;;;;;;5.77;4.20;;;9.10;89.60;;;;;;2082020;28;20270;-64
2021/09/24 01:57:34;;;;;;;6.87;4.30;;;9.00;90.00;;;;;;2081985;28;20218;-66
2021/09/24 01:58:34;;;;;;;8.47;4.43;;;9.00;90.90;;;;;;2082106;28;20235;-65
2021/09/24 01:59:35;;;;;;;5.90;4.07;;;8.90;91.60;;;;;;2081777;28;20238;-64
2021/09/24 02:00:36;;;;;;;5.27;4.07;;;8.90;91.80;;;;;;2082037;28;20189;-65
2021/09/24 02:01:36;;;;;;;5.93;4.43;;;8.90;93.00;;;;;;2081661;28;20238;-66
2021/09/24 02:02:37;;;;;;;6.83;3.97;;;8.80;92.80;;;;;;2081935;28;20648;-65
2021/09/24 02:03:38;;;;;;;5.77;4.13;;;8.80;92.50;;;;;;2081918;28;20215;-65
2021/09/24 02:04:38;;;;;;;7.57;4.47;;;8.80;92.10;;;;;;2081803;28;20187;-65
2021/09/24 02:05:39;;;;;;;5.13;4.30;;;8.80;92.10;;;;;;2081676;28;20184;-64
2021/09/24 02:06:40;;;;;;;5.03;4.30;;;8.80;92.00;;;;;;2082006;28;20188;-64
2021/09/24 02:07:40;;;;;;;8.23;4.43;;;8.80;92.40;;;;;;2082051;28;20558;-65
2021/09/24 02:08:41;;;;;;;6.60;4.20;;;8.80;92.80;;;;;;2081980;28;20195;-64
2021/09/24 02:09:42;;;;;;;7.03;4.20;;;8.80;92.70;;;;;;2081663;28;20184;-66
2021/09/24 02:10:43;;;;;;;5.40;4.33;;;8.80;92.70;;;;;;2081866;28;20192;-65
2021/09/24 02:11:43;;;;;;;6.27;4.53;;;8.80;93.60;;;;;;2081612;28;20184;-65
2021/09/24 02:12:44;;;;;;;5.13;4.10;;;8.80;93.70;;;;;;2081800;28;20659;-66
2021/09/24 02:13:45;;;;;;;6.27;4.50;;;8.80;93.30;;;;;;2081859;28;20180;-65
2021/09/24 02:14:45;;;;;;;7.53;4.73;;;8.80;93.20;;;;;;2081763;28;20180;-66
2021/09/24 02:15:46;;;;;;;6.43;4.00;;;8.80;93.10;;;;;;2082127;28;20215;-65
2021/09/24 02:16:47;;;;;;;8.23;5.07;;;8.80;92.90;;;;;;2081796;28;20165;-64
2021/09/24 02:17:48;;;;;;;7.53;4.80;;;8.90;94.20;;;;;;2082006;28;20181;-65
2021/09/24 02:18:48;;;;;;;5.90;4.37;;;9.00;94.50;;;;;;2081835;28;20195;-65
2021/09/24 02:19:49;;;;;;;7.00;4.53;;;9.00;93.70;;;;;;2081962;28;20618;-65
2021/09/24 02:20:50;;;;;;;6.63;4.57;;;9.00;93.00;;;;;;2081674;28;20570;-66
2021/09/24 02:21:50;;;;;;;7.17;4.77;;;9.00;92.90;;;;;;2081591;28;20201;-64
2021/09/24 02:22:51;;;;;;;5.40;4.50;;;8.90;92.90;;;;;;2081719;28;20179;-65
2021/09/24 02:23:52;;;;;;;7.97;4.57;;;9.00;93.20;;;;;;2081832;28;20448;-65
2021/09/24 02:24:53;;;;;;;5.77;4.43;;;9.00;93.40;;;;;;2081801;28;20265;-64
2021/09/24 02:25:54;;;;;;;6.67;5.03;;;9.00;93.30;;;;;;2081678;28;20474;-65
2021/09/24 02:26:55;;;;;;;8.27;5.13;;;9.00;93.40;;;;;;2081757;28;20179;-66
2021/09/24 02:27:56;;;;;;;7.47;4.93;;;9.00;93.30;;;;;;2081796;28;20183;-66
2021/09/24 02:28:57;;;;;;;7.37;4.40;;;8.90;93.10;;;;;;2081753;28;20193;-64
2021/09/24 02:29:57;;;;;;;5.63;4.60;;;8.90;92.80;;;;;;2081826;28;20653;-64
2021/09/24 02:30:59;;;;;;;6.33;4.40;;;8.90;92.80;;;;;;2081620;28;20189;-67
2021/09/24 02:32:00;;;;;;;10.52;4.70;;;8.90;92.90;;;;;;2080694;28;20202;-66
2021/09/24 02:33:00;;;;;;;8.57;4.60;;;8.90;93.10;;;;;;2080012;28;20214;-66
2021/09/24 02:34:01;;;;;;;7.63;5.27;;;8.90;93.10;;;;;;2073008;28;20656;-64
2021/09/24 02:35:02;;;;;;;6.80;5.10;;;9.00;94.20;;;;;;2081043;28;20179;-65
2021/09/24 02:36:08;;;;;;;7.77;5.90;;;9.10;94.40;;;;;;2081820;28;20180;-66
2021/09/24 02:37:09;;;;;;;6.78;5.00;;;9.10;94.40;;;;;;2081080;28;20575;-65
2021/09/24 02:38:09;;;;;;;6.93;4.70;;;9.10;94.20;;;;;;2081168;28;20208;-65
2021/09/24 02:39:10;;;;;;;7.07;4.83;;;9.20;93.70;;;;;;2081666;28;20188;-65
2021/09/24 02:40:11;;;;;;;4.67;4.13;;;9.10;93.40;;;;;;2081711;28;20212;-65
2021/09/24 02:41:12;;;;;;;4.00;3.40;;;9.00;92.30;;;;;;2080102;28;20550;-64
2021/09/24 02:42:12;;;;;;;5.90;4.40;;;8.90;90.30;;;;;;2081529;28;20542;-66
2021/09/24 02:43:13;;;;;;;5.30;3.80;;;8.60;90.40;;;;;;2080870;28;20197;-67
2021/09/24 02:44:14;;;;;;;4.70;3.73;;;8.40;90.60;;;;;;2081060;28;20185;-65
2021/09/24 02:45:15;;;;;;;4.93;3.85;;;8.20;91.50;;;;;;2081625;28;20265;-64
2021/09/24 02:46:16;;;;;;;4.90;3.80;;;8.00;92.40;;;;;;2081660;28;20178;-65
2021/09/24 02:47:16;;;;;;;5.93;4.30;;;7.90;92.70;;;;;;2081521;28;20607;-66
2021/09/24 02:48:17;;;;;;;6.00;3.97;;;7.90;92.90;;;;;;2081591;28;20200;-64
2021/09/24 02:49:18;;;;;;;7.00;4.20;;;7.80;93.30;;;;;;2081536;28;20177;-64
2021/09/24 02:50:18;;;;;;;5.80;4.13;;;7.80;93.40;;;;;;2081592;28;20197;-65
2021/09/24 02:51:20;;;;;;;6.30;4.20;;;7.80;93.30;;;;;;2081241;28;20590;-66
2021/09/24 02:52:21;;;;;;;5.03;3.60;;;7.80;93.30;;;;;;2081477;28;20244;-65
2021/09/24 02:53:22;;;;;;;5.70;3.77;;;7.80;93.20;;;;;;2081399;28;20196;-65
2021/09/24 02:54:22;;;;;;;8.07;4.20;;;7.80;93.10;;;;;;2081459;28;20659;-64
2021/09/24 02:55:23;;;;;;;6.07;4.10;;;7.80;93.10;;;;;;2081382;28;20288;-65
2021/09/24 02:56:24;;;;;;;6.00;3.67;;;7.80;93.00;;;;;;2081504;28;20262;-64
2021/09/24 02:57:24;;;;;;;5.37;4.17;;;7.80;93.10;;;;;;2081495;28;20175;-64
2021/09/24 02:58:25;;;;;;;6.67;3.77;;;7.70;93.20;;;;;;2081497;28;20169;-65
2021/09/24 02:59:26;;;;;;;8.37;4.10;;;7.70;93.30;;;;;;2078662;28;20229;-66
2021/09/24 03:00:27;;;;;;;6.43;4.40;;;7.80;93.40;;;;;;2073466;28;20260;-66
2021/09/24 03:01:27;;;;;;;6.50;4.50;;;7.70;93.60;;;;;;2073027;28;20174;-65
2021/09/24 03:02:28;;;;;;;6.27;4.33;;;7.80;93.70;;;;;;2073360;28;20195;-65
2021/09/24 03:03:29;;;;;;;7.43;3.93;;;7.80;93.90;;;;;;2073050;28;20220;-65
2021/09/24 03:04:30;;;;;;;6.57;4.28;;;7.80;94.10;;;;;;2073291;28;20269;-65
2021/09/24 03:05:31;;;;;;;5.30;4.07;;;7.80;94.10;;;;;;2073363;28;20189;-65
2021/09/24 03:06:33;;;;;;;5.72;4.20;;;7.80;94.20;;;;;;2073279;28;20554;-65
2021/09/24 03:07:34;;;;;;;5.85;4.30;;;7.80;94.20;;;;;;2073247;28;20231;-66
2021/09/24 03:08:34;;;;;;;5.67;4.07;;;7.70;94.30;;;;;;2073202;28;20181;-64
2021/09/24 03:09:35;;;;;;;6.63;4.57;;;7.70;94.40;;;;;;2073264;28;20225;-66
2021/09/24 03:10:36;;;;;;;6.90;4.00;;;7.60;94.10;;;;;;2073419;28;20177;-65
2021/09/24 03:11:37;;;;;;;5.17;3.80;;;7.60;93.90;;;;;;2073021;28;20213;-64
2021/09/24 03:12:38;;;;;;;7.03;4.37;;;7.50;94.00;;;;;;2073276;28;20688;-66
2021/09/24 03:13:39;;;;;;;8.90;4.55;;;7.50;94.00;;;;;;2073216;28;20175;-64
2021/09/24 03:14:40;;;;;;;4.93;3.90;;;7.50;93.60;;;;;;2073155;28;20170;-65
2021/09/24 03:15:40;;;;;;;5.97;3.67;;;7.50;93.30;;;;;;2073259;28;20171;-65
2021/09/24 03:16:42;;;;;;;6.47;4.00;;;7.50;93.20;;;;;;2073154;28;20551;-67
2021/09/24 03:17:42;;;;;;;6.45;4.30;;;7.50;93.10;;;;;;2072716;28;20174;-64
2021/09/24 03:18:43;;;;;;;5.97;4.10;;;7.40;93.00;;;;;;2072550;28;20265;-66
2021/09/24 03:19:44;;;;;;;5.40;3.90;;;7.40;93.00;;;;;;2072570;28;20181;-65
2021/09/24 03:20:45;;;;;;;8.37;4.77;;;7.40;93.20;;;;;;2073091;28;20177;-65
2021/09/24 03:21:47;;;;;;;5.97;3.93;;;7.40;93.50;;;;;;2072942;28;20174;-66
2021/09/24 03:22:48;;;;;;;7.28;4.53;;;7.30;93.60;;;;;;2073062;28;20240;-66
2021/09/24 03:23:49;;;;;;;7.20;4.27;;;7.30;93.70;;;;;;2073283;28;20537;-65
2021/09/24 03:24:49;;;;;;;9.13;4.53;;;7.30;93.80;;;;;;2073228;28;20170;-66
2021/09/24 03:25:50;;;;;;;5.77;4.30;;;7.30;94.30;;;;;;2073216;28;20543;-66
2021/09/24 03:26:51;;;;;;;8.00;5.07;;;7.30;94.40;;;;;;2073351;28;20177;-65
2021/09/24 03:27:52;;;;;;;6.57;4.40;;;7.20;94.90;;;;;;2075588;28;20183;-66
2021/09/24 03:28:53;;;;;;;7.88;4.70;;;7.20;95.00;;;;;;2081153;28;20254;-65
2021/09/24 03:29:54;;;;;;;8.13;4.90;;;7.20;94.90;;;;;;2081306;28;20557;-66
2021/09/24 03:30:54;;;;;;;7.53;4.57;;;7.20;94.90;;;;;;2081160;28;20169;-64
2021/09/24 03:31:55;;;;;;;5.87;4.37;;;7.30;94.70;;;;;;2080956;28;20201;-65
2021/09/24 03:32:56;;;;;;;8.83;4.77;;;7.30;94.70;;;;;;2081166;28;20208;-66
2021/09/24 03:33:57;;;;;;;5.47;4.27;;;7.30;94.80;;;;;;2081236;28;20746;-65
2021/09/24 03:34:57;;;;;;;6.87;4.77;;;7.20;95.00;;;;;;2081376;28;20185;-65
2021/09/24 03:35:58;;;;;;;7.43;4.50;;;7.20;95.00;;;;;;2081200;28;20180;-65
2021/09/24 03:36:59;;;;;;;6.23;4.10;;;7.20;95.00;;;;;;2081184;28;20701;-66
2021/09/24 03:37:59;;;;;;;5.63;3.90;;;7.20;95.00;;;;;;2081275;28;20217;-65
2021/09/24 03:39:01;;;;;;;5.77;3.97;;;7.20;94.80;;;;;;2081191;28;20177;-65
2021/09/24 03:40:03;;;;;;;5.63;4.20;;;7.20;94.60;;;;;;2081249;28;20668;-67
2021/09/24 03:41:03;;;;;;;6.38;4.22;;;7.20;94.50;;;;;;2080900;28;20193;-68
2021/09/24 03:42:04;;;;;;;7.30;4.43;;;7.20;95.10;;;;;;2081350;28;20644;-66
2021/09/24 03:43:05;;;;;;;6.50;4.20;;;7.20;94.70;;;;;;2081006;28;20204;-64
2021/09/24 03:44:08;;;;;;;7.23;4.70;;;7.20;94.80;;;;;;2081129;28;20212;-66
2021/09/24 03:45:09;;;;;;;7.30;5.00;;;7.20;94.80;;;;;;2081135;28;20212;-65
2021/09/24 03:46:10;;;;;;;6.53;4.40;;;7.20;94.80;;;;;;2081059;28;20192;-66
2021/09/24 03:47:11;;;;;;;6.23;4.07;;;7.20;94.90;;;;;;2081147;28;20176;-65
2021/09/24 03:48:12;;;;;;;7.67;4.40;;;7.10;95.00;;;;;;2081237;28;20184;-65
2021/09/24 03:49:12;;;;;;;6.70;4.50;;;7.10;95.00;;;;;;2081079;28;20177;-66
2021/09/24 03:50:13;;;;;;;6.60;4.40;;;7.10;95.00;;;;;;2081177;28;20176;-64
2021/09/24 03:51:14;;;;;;;6.03;4.37;;;7.10;95.00;;;;;;2080723;28;20185;-66
2021/09/24 03:52:14;;;;;;;6.97;4.30;;;7.20;95.10;;;;;;2081028;28;20271;-66
2021/09/24 03:53:15;;;;;;;6.03;4.37;;;7.10;95.30;;;;;;2081104;28;20192;-65
2021/09/24 03:54:17;;;;;;;9.07;4.60;;;7.10;95.40;;;;;;2081126;28;20227;-66
2021/09/24 03:55:18;;;;;;;8.80;5.53;;;7.10;95.20;;;;;;2081210;28;20309;-65
2021/09/24 03:56:18;;;;;;;10.40;5.77;;;7.00;95.10;;;;;;2081126;28;20259;-65
2021/09/24 03:57:19;;;;;;;14.93;6.47;;;7.00;95.10;;;;;;2081097;28;20507;-64
2021/09/24 03:58:23;;;;;;;13.80;7.13;;;7.00;94.90;;;;;;2081170;28;20189;-64
2021/09/24 03:59:24;;;;;;;14.35;6.82;;;6.90;95.40;;;;;;2081157;28;20192;-65
2021/09/24 04:00:24;;;;;;;12.50;7.00;;;6.90;95.00;;;;;;2081153;28;20184;-66
2021/09/24 04:01:25;;;;;;;12.37;7.17;;;6.80;95.10;;;;;;2080917;28;20222;-66
2021/09/24 04:02:26;;;;;;;14.50;7.37;;;6.80;95.10;;;;;;2081532;28;20170;-65
2021/09/24 04:03:28;;;;;;;15.67;7.57;;;6.80;95.10;;;;;;2081120;28;20200;-66
2021/09/24 04:04:30;;;;;;;16.13;6.60;;;6.80;95.10;;;;;;2081101;28;20165;-66
2021/09/24 04:05:30;;;;;;;10.82;6.32;;;6.80;95.00;;;;;;2081111;28;20556;-67
2021/09/24 04:06:31;;;;;;;12.33;6.67;;;6.80;95.00;;;;;;2081058;28;20203;-65
2021/09/24 04:07:32;;;;;;;9.10;5.53;;;6.80;95.00;;;;;;2081003;28;20180;-66
2021/09/24 04:08:33;;;;;;;12.03;5.83;;;6.80;95.00;;;;;;2080974;28;20280;-66
2021/09/24 04:09:33;;;;;;;12.47;6.10;;;6.80;95.00;;;;;;2081148;28;20213;-65
2021/09/24 04:10:34;;;;;;;10.47;5.23;;;6.80;95.00;;;;;;2081069;28;20203;-65
2021/09/24 04:11:37;;;;;;;8.75;5.05;;;6.80;95.00;;;;;;2080734;28;20177;-65
2021/09/24 04:12:38;;;;;;;9.23;5.47;;;6.80;94.70;;;;;;2080379;28;20183;-66
2021/09/24 04:13:39;;;;;;;10.50;5.53;;;6.80;94.70;;;;;;2080477;28;20161;-66
2021/09/24 04:14:39;;;;;;;9.23;5.17;;;6.80;94.70;;;;;;2081021;28;20267;-67
2021/09/24 04:15:40;;;;;;;9.47;5.33;;;6.80;94.70;;;;;;2081070;28;20200;-65
2021/09/24 04:16:42;;;;;;;9.63;5.63;;;6.80;94.90;;;;;;2080411;28;20199;-66
2021/09/24 04:17:42;;;;;;;8.23;5.20;;;6.80;95.20;;;;;;2080587;28;20180;-66
2021/09/24 04:18:43;;;;;;;7.57;5.33;;;6.80;95.30;;;;;;2081005;28;20267;-65
2021/09/24 04:19:44;;;;;;;9.03;5.23;;;6.80;95.70;;;;;;2081248;28;20647;-66
2021/09/24 04:20:46;;;;;;;7.73;5.03;;;6.80;95.90;;;;;;2081045;28;20224;-66
2021/09/24 04:21:48;;;;;;;6.78;4.93;;;6.80;96.20;;;;;;2080797;28;20169;-66
2021/09/24 04:22:49;;;;;;;8.43;4.90;;;6.80;96.30;;;;;;2080872;28;20223;-65
2021/09/24 04:23:49;;;;;;;7.97;5.07;;;6.90;96.20;;;;;;2080961;28;20162;-67
2021/09/24 04:24:50;;;;;;;8.50;5.13;;;6.90;96.10;;;;;;2081079;28;20703;-66
2021/09/24 04:25:51;;;;;;;8.90;5.30;;;6.90;96.10;;;;;;2081191;28;20177;-66
2021/09/24 04:26:52;;;;;;;8.37;4.80;;;6.90;96.10;;;;;;2081032;28;20169;-66
2021/09/24 04:27:52;;;;;;;8.53;4.87;;;6.90;95.90;;;;;;2081008;28;20172;-66
2021/09/24 04:28:53;;;;;;;9.87;5.17;;;7.00;95.80;;;;;;2081878;28;20197;-66
2021/09/24 04:29:54;;;;;;;8.17;5.50;;;7.00;95.80;;;;;;2082525;28;20712;-65
2021/09/24 04:30:54;;;;;;;10.90;4.90;;;7.00;95.80;;;;;;2082555;28;20652;-65
2021/09/24 04:31:55;;;;;;;7.77;5.07;;;7.00;95.80;;;;;;2082333;28;20236;-66
2021/09/24 04:32:56;;;;;;;6.33;4.57;;;7.00;96.00;;;;;;2082537;28;20207;-65
2021/09/24 04:33:57;;;;;;;6.80;4.73;;;7.00;96.00;;;;;;2082583;28;20211;-65
2021/09/24 04:34:57;;;;;;;11.23;5.80;;;7.00;95.90;;;;;;2082648;28;20187;-66
2021/09/24 04:35:58;;;;;;;6.70;4.60;;;7.10;96.00;;;;;;2082656;28;20189;-66
2021/09/24 04:36:59;;;;;;;8.30;5.30;;;7.10;96.00;;;;;;2082586;28;20250;-67
2021/09/24 04:38:00;;;;;;;10.13;6.00;;;7.10;96.10;;;;;;2082708;28;20250;-65
2021/09/24 04:39:02;;;;;;;7.13;5.35;;;7.10;96.20;;;;;;2082836;28;20173;-64
2021/09/24 04:40:04;;;;;;;8.10;5.50;;;7.10;96.70;;;;;;2082548;28;20189;-68
2021/09/24 04:41:05;;;;;;;8.77;6.13;;;7.10;96.20;;;;;;2082281;28;20184;-66
2021/09/24 04:42:06;;;;;;;8.70;5.70;;;7.10;96.20;;;;;;2081892;28;20194;-65
2021/09/24 04:43:07;;;;;;;9.27;5.87;;;7.10;96.20;;;;;;2081855;28;20227;-64
2021/09/24 04:44:08;;;;;;;8.85;5.90;;;7.00;96.10;;;;;;2082810;28;20181;-64
2021/09/24 04:45:09;;;;;;;10.73;5.43;;;7.00;96.10;;;;;;2082487;28;20184;-65
2021/09/24 04:46:10;;;;;;;7.38;5.35;;;7.10;95.80;;;;;;2081887;28;20576;-64
2021/09/24 04:47:11;;;;;;;8.53;4.83;;;7.10;95.70;;;;;;2081939;28;20200;-63
2021/09/24 04:48:12;;;;;;;7.90;4.93;;;7.10;95.70;;;;;;2082527;28;20185;-65
2021/09/24 04:49:13;;;;;;;7.27;4.73;;;7.10;95.70;;;;;;2082610;28;20185;-64
2021/09/24 04:50:14;;;;;;;8.48;5.60;;;7.00;95.70;;;;;;2081760;28;20180;-65
2021/09/24 04:51:14;;;;;;;19.67;10.63;;;7.00;95.70;;;;;;2081549;28;20204;-64
2021/09/24 04:52:15;;;;;;;9.70;6.43;;;7.00;95.80;;;;;;2082427;28;20769;-63
2021/09/24 04:53:16;;;;;;;11.03;6.30;;;6.90;95.90;;;;;;2082437;28;20212;-64
2021/09/24 04:54:17;;;;;;;8.20;5.77;;;6.90;96.00;;;;;;2082444;28;20166;-63
2021/09/24 04:55:18;;;;;;;8.27;5.60;;;6.80;96.00;;;;;;2082460;28;20188;-63
2021/09/24 04:56:18;;;;;;;10.57;6.27;;;6.80;96.00;;;;;;2082385;28;20227;-63
2021/09/24 04:57:19;;;;;;;10.13;5.80;;;6.80;96.10;;;;;;2082529;28;20486;-64
2021/09/24 04:58:20;;;;;;;9.93;6.07;;;6.80;96.00;;;;;;2082356;28;20178;-64
2021/09/24 04:59:20;;;;;;;10.57;5.63;;;6.80;96.10;;;;;;2082540;28;20185;-65
2021/09/24 05:00:21;;;;;;;8.23;5.60;;;6.80;96.10;;;;;;2082432;28;20545;-64
2021/09/24 05:01:22;;;;;;;7.97;5.90;;;6.80;96.10;;;;;;2081414;28;20169;-64
2021/09/24 05:02:22;;;;;;;11.90;5.97;;;6.80;96.10;;;;;;2081826;28;20578;-64
2021/09/24 05:03:23;;;;;;;11.23;6.40;;;6.80;96.00;;;;;;2082358;28;20199;-63
2021/09/24 05:04:24;;;;;;;12.03;7.13;;;6.80;96.00;;;;;;2077310;28;20220;-65
2021/09/24 05:05:24;;;;;;;9.47;6.40;;;6.80;96.10;;;;;;2074280;28;20185;-63
2021/09/24 05:06:25;;;;;;;11.77;5.83;;;6.80;96.10;;;;;;2074056;28;20232;-63
2021/09/24 05:07:26;;;;;;;8.80;5.77;;;6.80;96.20;;;;;;2074189;28;20170;-65
2021/09/24 05:08:26;;;;;;;9.20;6.17;;;6.80;96.30;;;;;;2074133;28;20178;-63
2021/09/24 05:09:27;;;;;;;9.03;6.37;;;6.80;96.40;;;;;;2074140;28;20247;-64
2021/09/24 05:10:28;;;;;;;10.43;6.13;;;6.80;96.30;;;;;;2074180;28;20544;-65
2021/09/24 05:11:29;;;;;;;9.32;6.20;;;6.80;96.20;;;;;;2073845;28;20176;-65
2021/09/24 05:12:30;;;;;;;9.53;5.90;;;6.80;96.20;;;;;;2074094;28;20216;-65
2021/09/24 05:13:31;;;;;;;9.27;6.10;;;6.80;96.30;;;;;;2074068;28;20460;-63
2021/09/24 05:14:32;;;;;;;8.37;6.40;;;6.80;96.50;;;;;;2074010;28;20547;-63
2021/09/24 05:15:33;;;;;;;13.35;7.03;;;6.80;96.70;;;;;;2074139;28;20174;-64
2021/09/24 05:16:33;;;;;;;8.40;5.77;;;6.80;96.60;;;;;;2074037;28;20653;-64
2021/09/24 05:17:34;;;;;;;9.27;6.57;;;6.80;96.50;;;;;;2074081;28;20173;-64
2021/09/24 05:18:35;;;;;;;10.47;5.63;;;6.80;96.50;;;;;;2074100;28;21363;-63
2021/09/24 05:19:36;;;;;;;8.30;5.50;;;6.80;96.50;;;;;;2074156;28;20202;-63
2021/09/24 05:20:37;;;;;;;8.13;6.00;;;6.80;96.50;;;;;;2074141;28;20261;-64